sensor_id;sensor_type;location;lat;lon;timestamp;P1;durP1;ratioP1;P2;durP2;ratioP2
52136;SDS011;69622;49.570;10.986;2023-04-25T00:01:06;4.97;;;3.60;;
52136;SDS011;69622;49.570;10.986;2023-04-25T00:04:07;6.47;;;3.83;;
52136;SDS011;69622;49.570;10.986;2023-04-25T00:07:09;6.53;;;3.75;;
52136;SDS011;69622;49.570;10.986;2023-04-25T00:10:11;4.65;;;3.25;;
52136;SDS011;69622;49.570;10.986;2023-04-25T00:13:13;4.78;;;3.08;;
52136;SDS011;69622;49.570;10.986;2023-04-25T00:16:14;5.97;;;3.22;;
52136;SDS011;69622;49.570;10.986;2023-04-25T00:19:16;4.10;;;3.25;;
52136;SDS011;69622;49.570;10.986;2023-04-25T00:22:17;4.90;;;2.80;;
52136;SDS011;69622;49.570;10.986;2023-04-25T00:25:19;4.28;;;3.40;;
52136;SDS011;69622;49.570;10.986;2023-04-25T00:28:20;4.13;;;3.28;;
52136;SDS011;69622;49.570;10.986;2023-04-25T00:31:22;6.05;;;3.97;;
52136;SDS011;69622;49.570;10.986;2023-04-25T00:34:23;5.78;;;3.63;;
52136;SDS011;69622;49.570;10.986;2023-04-25T00:37:25;5.18;;;3.00;;
52136;SDS011;69622;49.570;10.986;2023-04-25T00:40:26;5.20;;;3.40;;
52136;SDS011;69622;49.570;10.986;2023-04-25T00:43:28;5.43;;;3.70;;
52136;SDS011;69622;49.570;10.986;2023-04-25T00:46:31;4.10;;;3.67;;
52136;SDS011;69622;49.570;10.986;2023-04-25T00:49:33;6.30;;;3.20;;
52136;SDS011;69622;49.570;10.986;2023-04-25T00:52:35;5.68;;;3.53;;
52136;SDS011;69622;49.570;10.986;2023-04-25T00:55:38;6.22;;;3.83;;
52136;SDS011;69622;49.570;10.986;2023-04-25T00:58:40;4.80;;;3.40;;
52136;SDS011;69622;49.570;10.986;2023-04-25T01:01:43;5.30;;;3.55;;
52136;SDS011;69622;49.570;10.986;2023-04-25T01:04:47;4.47;;;3.13;;
52136;SDS011;69622;49.570;10.986;2023-04-25T01:07:49;5.07;;;3.30;;
52136;SDS011;69622;49.570;10.986;2023-04-25T01:10:50;3.92;;;3.00;;
52136;SDS011;69622;49.570;10.986;2023-04-25T01:13:52;5.60;;;3.38;;
52136;SDS011;69622;49.570;10.986;2023-04-25T01:16:53;7.95;;;3.35;;
52136;SDS011;69622;49.570;10.986;2023-04-25T01:19:55;3.40;;;2.70;;
52136;SDS011;69622;49.570;10.986;2023-04-25T01:22:56;6.47;;;3.30;;
52136;SDS011;69622;49.570;10.986;2023-04-25T01:25:58;3.95;;;2.85;;
52136;SDS011;69622;49.570;10.986;2023-04-25T01:29:00;4.93;;;3.70;;
52136;SDS011;69622;49.570;10.986;2023-04-25T01:32:02;3.80;;;2.88;;
52136;SDS011;69622;49.570;10.986;2023-04-25T01:35:08;4.57;;;3.40;;
52136;SDS011;69622;49.570;10.986;2023-04-25T01:38:12;5.68;;;3.85;;
52136;SDS011;69622;49.570;10.986;2023-04-25T01:41:13;4.97;;;3.47;;
52136;SDS011;69622;49.570;10.986;2023-04-25T01:44:15;5.88;;;3.67;;
52136;SDS011;69622;49.570;10.986;2023-04-25T01:47:17;4.88;;;3.80;;
52136;SDS011;69622;49.570;10.986;2023-04-25T01:50:19;5.63;;;3.40;;
52136;SDS011;69622;49.570;10.986;2023-04-25T01:53:21;5.53;;;3.60;;
52136;SDS011;69622;49.570;10.986;2023-04-25T01:56:23;7.32;;;3.83;;
52136;SDS011;69622;49.570;10.986;2023-04-25T01:59:25;4.57;;;3.45;;
52136;SDS011;69622;49.570;10.986;2023-04-25T02:02:26;6.05;;;3.78;;
52136;SDS011;69622;49.570;10.986;2023-04-25T02:05:28;6.35;;;3.80;;
52136;SDS011;69622;49.570;10.986;2023-04-25T02:08:30;5.30;;;3.30;;
52136;SDS011;69622;49.570;10.986;2023-04-25T02:11:32;4.80;;;3.30;;
52136;SDS011;69622;49.570;10.986;2023-04-25T02:14:33;4.57;;;3.15;;
52136;SDS011;69622;49.570;10.986;2023-04-25T02:17:35;6.95;;;3.67;;
52136;SDS011;69622;49.570;10.986;2023-04-25T02:20:36;5.43;;;3.60;;
52136;SDS011;69622;49.570;10.986;2023-04-25T02:23:38;4.07;;;3.08;;
52136;SDS011;69622;49.570;10.986;2023-04-25T02:26:39;5.55;;;3.45;;
52136;SDS011;69622;49.570;10.986;2023-04-25T02:29:41;4.78;;;3.25;;
52136;SDS011;69622;49.570;10.986;2023-04-25T02:32:42;5.30;;;3.70;;
52136;SDS011;69622;49.570;10.986;2023-04-25T02:35:44;4.88;;;3.60;;
52136;SDS011;69622;49.570;10.986;2023-04-25T02:38:45;5.47;;;3.65;;
52136;SDS011;69622;49.570;10.986;2023-04-25T02:41:46;4.35;;;3.17;;
52136;SDS011;69622;49.570;10.986;2023-04-25T02:44:48;6.90;;;4.20;;
52136;SDS011;69622;49.570;10.986;2023-04-25T02:47:49;4.80;;;3.80;;
52136;SDS011;69622;49.570;10.986;2023-04-25T02:50:51;6.00;;;3.65;;
52136;SDS011;69622;49.570;10.986;2023-04-25T02:53:52;6.75;;;3.90;;
52136;SDS011;69622;49.570;10.986;2023-04-25T02:56:53;6.13;;;3.65;;
52136;SDS011;69622;49.570;10.986;2023-04-25T02:59:55;5.38;;;3.63;;
52136;SDS011;69622;49.570;10.986;2023-04-25T03:02:57;6.20;;;3.92;;
52136;SDS011;69622;49.570;10.986;2023-04-25T03:05:58;7.07;;;4.00;;
52136;SDS011;69622;49.570;10.986;2023-04-25T03:09:00;6.82;;;4.47;;
52136;SDS011;69622;49.570;10.986;2023-04-25T03:12:01;6.72;;;4.22;;
52136;SDS011;69622;49.570;10.986;2023-04-25T03:15:03;6.38;;;3.88;;
52136;SDS011;69622;49.570;10.986;2023-04-25T03:18:04;7.88;;;4.85;;
52136;SDS011;69622;49.570;10.986;2023-04-25T03:21:06;6.95;;;4.75;;
52136;SDS011;69622;49.570;10.986;2023-04-25T03:24:07;5.68;;;4.10;;
52136;SDS011;69622;49.570;10.986;2023-04-25T03:27:09;5.88;;;3.65;;
52136;SDS011;69622;49.570;10.986;2023-04-25T03:30:10;4.93;;;3.47;;
52136;SDS011;69622;49.570;10.986;2023-04-25T03:33:12;7.82;;;3.72;;
52136;SDS011;69622;49.570;10.986;2023-04-25T03:36:13;5.90;;;4.00;;
52136;SDS011;69622;49.570;10.986;2023-04-25T03:39:15;6.25;;;3.72;;
52136;SDS011;69622;49.570;10.986;2023-04-25T03:42:16;8.88;;;5.15;;
52136;SDS011;69622;49.570;10.986;2023-04-25T03:45:18;7.45;;;4.32;;
52136;SDS011;69622;49.570;10.986;2023-04-25T03:48:20;6.03;;;4.60;;
52136;SDS011;69622;49.570;10.986;2023-04-25T03:51:26;6.13;;;4.22;;
52136;SDS011;69622;49.570;10.986;2023-04-25T03:54:28;8.18;;;4.60;;
52136;SDS011;69622;49.570;10.986;2023-04-25T03:57:29;5.85;;;4.55;;
52136;SDS011;69622;49.570;10.986;2023-04-25T04:00:30;7.45;;;6.05;;
52136;SDS011;69622;49.570;10.986;2023-04-25T04:03:32;8.63;;;5.57;;
52136;SDS011;69622;49.570;10.986;2023-04-25T04:06:35;8.65;;;5.72;;
52136;SDS011;69622;49.570;10.986;2023-04-25T04:09:37;8.40;;;5.35;;
52136;SDS011;69622;49.570;10.986;2023-04-25T04:12:38;9.23;;;5.30;;
52136;SDS011;69622;49.570;10.986;2023-04-25T04:15:40;9.65;;;6.05;;
52136;SDS011;69622;49.570;10.986;2023-04-25T04:18:41;10.00;;;5.43;;
52136;SDS011;69622;49.570;10.986;2023-04-25T04:21:43;9.88;;;5.47;;
52136;SDS011;69622;49.570;10.986;2023-04-25T04:24:44;7.47;;;5.00;;
52136;SDS011;69622;49.570;10.986;2023-04-25T04:27:47;7.50;;;5.45;;
52136;SDS011;69622;49.570;10.986;2023-04-25T04:30:48;7.78;;;5.63;;
52136;SDS011;69622;49.570;10.986;2023-04-25T04:33:52;8.80;;;5.53;;
52136;SDS011;69622;49.570;10.986;2023-04-25T04:36:53;6.50;;;4.25;;
52136;SDS011;69622;49.570;10.986;2023-04-25T04:39:56;7.65;;;4.70;;
52136;SDS011;69622;49.570;10.986;2023-04-25T04:42:57;7.22;;;4.97;;
52136;SDS011;69622;49.570;10.986;2023-04-25T04:46:02;8.32;;;4.95;;
52136;SDS011;69622;49.570;10.986;2023-04-25T04:49:05;5.80;;;4.28;;
52136;SDS011;69622;49.570;10.986;2023-04-25T04:52:06;7.45;;;4.78;;
52136;SDS011;69622;49.570;10.986;2023-04-25T04:55:08;6.38;;;4.68;;
52136;SDS011;69622;49.570;10.986;2023-04-25T04:58:09;7.03;;;4.78;;
52136;SDS011;69622;49.570;10.986;2023-04-25T05:01:11;6.65;;;4.45;;
52136;SDS011;69622;49.570;10.986;2023-04-25T05:04:13;7.68;;;4.85;;
52136;SDS011;69622;49.570;10.986;2023-04-25T05:07:14;6.32;;;3.97;;
52136;SDS011;69622;49.570;10.986;2023-04-25T05:10:16;5.75;;;3.95;;
52136;SDS011;69622;49.570;10.986;2023-04-25T05:13:19;5.65;;;4.22;;
52136;SDS011;69622;49.570;10.986;2023-04-25T05:16:20;5.85;;;4.10;;
52136;SDS011;69622;49.570;10.986;2023-04-25T05:19:22;5.53;;;4.13;;
52136;SDS011;69622;49.570;10.986;2023-04-25T05:22:23;7.40;;;3.85;;
52136;SDS011;69622;49.570;10.986;2023-04-25T05:34:09;4.35;;;3.13;;
52136;SDS011;69622;49.570;10.986;2023-04-25T05:37:10;5.00;;;3.35;;
52136;SDS011;69622;49.570;10.986;2023-04-25T05:40:12;4.85;;;3.38;;
52136;SDS011;69622;49.570;10.986;2023-04-25T05:43:13;5.15;;;3.47;;
52136;SDS011;69622;49.570;10.986;2023-04-25T05:46:15;5.00;;;3.45;;
52136;SDS011;69622;49.570;10.986;2023-04-25T05:49:18;5.38;;;3.78;;
52136;SDS011;69622;49.570;10.986;2023-04-25T05:52:19;5.35;;;3.80;;
52136;SDS011;69622;49.570;10.986;2023-04-25T05:55:21;7.40;;;3.70;;
52136;SDS011;69622;49.570;10.986;2023-04-25T05:58:22;7.80;;;3.85;;
52136;SDS011;69622;49.570;10.986;2023-04-25T06:01:24;6.82;;;4.03;;
52136;SDS011;69622;49.570;10.986;2023-04-25T06:04:25;6.13;;;4.22;;
52136;SDS011;69622;49.570;10.986;2023-04-25T06:07:27;5.50;;;4.15;;
52136;SDS011;69622;49.570;10.986;2023-04-25T06:10:29;7.90;;;4.60;;
52136;SDS011;69622;49.570;10.986;2023-04-25T06:13:30;7.40;;;4.40;;
52136;SDS011;69622;49.570;10.986;2023-04-25T06:16:32;6.10;;;4.20;;
52136;SDS011;69622;49.570;10.986;2023-04-25T06:19:34;5.40;;;4.05;;
52136;SDS011;69622;49.570;10.986;2023-04-25T06:22:36;6.10;;;4.32;;
52136;SDS011;69622;49.570;10.986;2023-04-25T06:25:38;6.05;;;4.32;;
52136;SDS011;69622;49.570;10.986;2023-04-25T06:28:39;8.75;;;5.35;;
52136;SDS011;69622;49.570;10.986;2023-04-25T06:31:41;8.00;;;4.47;;
52136;SDS011;69622;49.570;10.986;2023-04-25T06:34:43;8.00;;;4.75;;
52136;SDS011;69622;49.570;10.986;2023-04-25T06:37:44;8.73;;;5.40;;
52136;SDS011;69622;49.570;10.986;2023-04-25T06:40:45;10.38;;;6.03;;
52136;SDS011;69622;49.570;10.986;2023-04-25T06:43:47;9.40;;;6.82;;
52136;SDS011;69622;49.570;10.986;2023-04-25T06:46:48;7.88;;;5.72;;
52136;SDS011;69622;49.570;10.986;2023-04-25T06:49:50;11.05;;;6.28;;
52136;SDS011;69622;49.570;10.986;2023-04-25T06:52:51;8.65;;;6.00;;
52136;SDS011;69622;49.570;10.986;2023-04-25T06:55:53;7.32;;;5.22;;
52136;SDS011;69622;49.570;10.986;2023-04-25T06:58:54;7.15;;;4.28;;
52136;SDS011;69622;49.570;10.986;2023-04-25T07:01:56;5.90;;;4.00;;
52136;SDS011;69622;49.570;10.986;2023-04-25T07:04:57;6.07;;;3.05;;
52136;SDS011;69622;49.570;10.986;2023-04-25T07:08:00;5.22;;;2.40;;
52136;SDS011;69622;49.570;10.986;2023-04-25T07:11:02;6.32;;;2.97;;
52136;SDS011;69622;49.570;10.986;2023-04-25T07:14:04;4.88;;;3.38;;
52136;SDS011;69622;49.570;10.986;2023-04-25T07:17:05;4.95;;;2.97;;
52136;SDS011;69622;49.570;10.986;2023-04-25T07:20:07;6.20;;;2.72;;
52136;SDS011;69622;49.570;10.986;2023-04-25T07:23:10;4.70;;;3.35;;
52136;SDS011;69622;49.570;10.986;2023-04-25T07:26:11;5.88;;;3.97;;
52136;SDS011;69622;49.570;10.986;2023-04-25T07:29:13;7.60;;;5.13;;
52136;SDS011;69622;49.570;10.986;2023-04-25T07:32:14;6.80;;;3.80;;
52136;SDS011;69622;49.570;10.986;2023-04-25T07:35:16;9.13;;;5.70;;
52136;SDS011;69622;49.570;10.986;2023-04-25T07:38:18;7.60;;;3.78;;
52136;SDS011;69622;49.570;10.986;2023-04-25T07:41:20;4.75;;;3.25;;
52136;SDS011;69622;49.570;10.986;2023-04-25T07:44:21;6.35;;;3.38;;
52136;SDS011;69622;49.570;10.986;2023-04-25T07:47:23;6.88;;;3.97;;
52136;SDS011;69622;49.570;10.986;2023-04-25T07:50:24;5.35;;;3.25;;
52136;SDS011;69622;49.570;10.986;2023-04-25T07:53:26;7.40;;;3.92;;
52136;SDS011;69622;49.570;10.986;2023-04-25T07:56:28;8.20;;;3.30;;
52136;SDS011;69622;49.570;10.986;2023-04-25T07:59:45;7.03;;;3.58;;
52136;SDS011;69622;49.570;10.986;2023-04-25T08:02:47;7.68;;;4.10;;
52136;SDS011;69622;49.570;10.986;2023-04-25T08:05:48;7.05;;;3.97;;
52136;SDS011;69622;49.570;10.986;2023-04-25T08:08:50;6.05;;;3.58;;
52136;SDS011;69622;49.570;10.986;2023-04-25T08:11:53;5.70;;;3.15;;
52136;SDS011;69622;49.570;10.986;2023-04-25T08:14:54;4.97;;;3.17;;
52136;SDS011;69622;49.570;10.986;2023-04-25T08:17:56;6.45;;;3.70;;
52136;SDS011;69622;49.570;10.986;2023-04-25T08:20:57;6.10;;;4.45;;
52136;SDS011;69622;49.570;10.986;2023-04-25T08:23:59;5.97;;;4.43;;
52136;SDS011;69622;49.570;10.986;2023-04-25T08:27:00;10.07;;;4.38;;
52136;SDS011;69622;49.570;10.986;2023-04-25T08:30:02;6.63;;;4.43;;
52136;SDS011;69622;49.570;10.986;2023-04-25T08:33:05;6.07;;;4.45;;
52136;SDS011;69622;49.570;10.986;2023-04-25T08:36:06;8.00;;;5.82;;
52136;SDS011;69622;49.570;10.986;2023-04-25T08:39:08;10.70;;;6.07;;
52136;SDS011;69622;49.570;10.986;2023-04-25T08:42:09;6.68;;;4.97;;
52136;SDS011;69622;49.570;10.986;2023-04-25T08:45:13;9.90;;;5.45;;
52136;SDS011;69622;49.570;10.986;2023-04-25T08:48:15;7.63;;;4.93;;
52136;SDS011;69622;49.570;10.986;2023-04-25T08:51:22;8.18;;;5.45;;
52136;SDS011;69622;49.570;10.986;2023-04-25T08:54:27;8.13;;;5.38;;
52136;SDS011;69622;49.570;10.986;2023-04-25T08:57:49;9.25;;;5.43;;
52136;SDS011;69622;49.570;10.986;2023-04-25T09:00:51;7.80;;;5.43;;
52136;SDS011;69622;49.570;10.986;2023-04-25T09:03:54;15.35;;;6.22;;
52136;SDS011;69622;49.570;10.986;2023-04-25T09:06:55;7.60;;;5.35;;
52136;SDS011;69622;49.570;10.986;2023-04-25T09:09:57;7.90;;;5.07;;
52136;SDS011;69622;49.570;10.986;2023-04-25T09:13:10;8.07;;;4.70;;
52136;SDS011;69622;49.570;10.986;2023-04-25T09:16:16;9.02;;;4.82;;
52136;SDS011;69622;49.570;10.986;2023-04-25T09:19:27;9.38;;;4.95;;
52136;SDS011;69622;49.570;10.986;2023-04-25T09:22:42;6.53;;;4.13;;
52136;SDS011;69622;49.570;10.986;2023-04-25T09:25:47;5.93;;;4.45;;
52136;SDS011;69622;49.570;10.986;2023-04-25T09:28:50;5.40;;;4.05;;
52136;SDS011;69622;49.570;10.986;2023-04-25T09:32:20;6.03;;;3.90;;
52136;SDS011;69622;49.570;10.986;2023-04-25T09:35:25;7.55;;;4.50;;
52136;SDS011;69622;49.570;10.986;2023-04-25T09:38:30;5.80;;;3.90;;
52136;SDS011;69622;49.570;10.986;2023-04-25T09:41:33;5.40;;;4.10;;
52136;SDS011;69622;49.570;10.986;2023-04-25T09:44:41;8.02;;;3.83;;
52136;SDS011;69622;49.570;10.986;2023-04-25T09:47:44;4.47;;;3.20;;
52136;SDS011;69622;49.570;10.986;2023-04-25T09:50:51;3.90;;;2.72;;
52136;SDS011;69622;49.570;10.986;2023-04-25T09:54:08;2.67;;;1.50;;
52136;SDS011;69622;49.570;10.986;2023-04-25T09:57:10;5.82;;;1.98;;
52136;SDS011;69622;49.570;10.986;2023-04-25T10:00:13;11.10;;;2.20;;
52136;SDS011;69622;49.570;10.986;2023-04-25T10:03:15;3.33;;;1.90;;
52136;SDS011;69622;49.570;10.986;2023-04-25T10:06:19;4.28;;;2.13;;
52136;SDS011;69622;49.570;10.986;2023-04-25T10:09:23;7.07;;;2.35;;
52136;SDS011;69622;49.570;10.986;2023-04-25T10:12:26;4.13;;;2.40;;
52136;SDS011;69622;49.570;10.986;2023-04-25T10:15:28;4.18;;;2.38;;
52136;SDS011;69622;49.570;10.986;2023-04-25T10:18:31;4.93;;;2.00;;
52136;SDS011;69622;49.570;10.986;2023-04-25T10:21:33;4.20;;;2.00;;
52136;SDS011;69622;49.570;10.986;2023-04-25T10:24:35;5.85;;;2.50;;
52136;SDS011;69622;49.570;10.986;2023-04-25T10:27:38;4.35;;;2.35;;
52136;SDS011;69622;49.570;10.986;2023-04-25T10:34:04;4.57;;;1.67;;
52136;SDS011;69622;49.570;10.986;2023-04-25T10:37:08;2.63;;;1.42;;
52136;SDS011;69622;49.570;10.986;2023-04-25T10:40:11;5.28;;;2.20;;
52136;SDS011;69622;49.570;10.986;2023-04-25T10:46:32;4.05;;;1.95;;
52136;SDS011;69622;49.570;10.986;2023-04-25T10:49:36;2.22;;;1.80;;
52136;SDS011;69622;49.570;10.986;2023-04-25T10:52:39;4.65;;;1.90;;
52136;SDS011;69622;49.570;10.986;2023-04-25T10:55:51;6.45;;;1.65;;
52136;SDS011;69622;49.570;10.986;2023-04-25T10:59:06;4.57;;;2.25;;
52136;SDS011;69622;49.570;10.986;2023-04-25T11:02:12;3.72;;;1.85;;
52136;SDS011;69622;49.570;10.986;2023-04-25T11:05:19;3.78;;;2.08;;
52136;SDS011;69622;49.570;10.986;2023-04-25T11:08:29;5.63;;;2.03;;
52136;SDS011;69622;49.570;10.986;2023-04-25T11:11:53;3.33;;;2.55;;
52136;SDS011;69622;49.570;10.986;2023-04-25T11:15:02;4.70;;;2.03;;
52136;SDS011;69622;49.570;10.986;2023-04-25T11:18:04;3.03;;;1.73;;
52136;SDS011;69622;49.570;10.986;2023-04-25T11:21:06;3.67;;;1.90;;
52136;SDS011;69622;49.570;10.986;2023-04-25T11:24:08;3.97;;;1.75;;
52136;SDS011;69622;49.570;10.986;2023-04-25T11:27:10;1.98;;;1.30;;
52136;SDS011;69622;49.570;10.986;2023-04-25T11:30:12;3.08;;;1.40;;
52136;SDS011;69622;49.570;10.986;2023-04-25T11:33:16;5.20;;;1.85;;
52136;SDS011;69622;49.570;10.986;2023-04-25T11:36:18;2.75;;;1.30;;
52136;SDS011;69622;49.570;10.986;2023-04-25T11:39:20;3.33;;;1.20;;
52136;SDS011;69622;49.570;10.986;2023-04-25T11:42:21;1.60;;;0.95;;
52136;SDS011;69622;49.570;10.986;2023-04-25T11:45:23;1.35;;;1.00;;
52136;SDS011;69622;49.570;10.986;2023-04-25T11:48:24;3.33;;;1.50;;
52136;SDS011;69622;49.570;10.986;2023-04-25T11:51:26;1.95;;;1.02;;
52136;SDS011;69622;49.570;10.986;2023-04-25T11:54:28;2.83;;;1.45;;
52136;SDS011;69622;49.570;10.986;2023-04-25T11:57:30;2.78;;;1.15;;
52136;SDS011;69622;49.570;10.986;2023-04-25T12:00:32;1.52;;;1.25;;
52136;SDS011;69622;49.570;10.986;2023-04-25T12:03:33;3.40;;;1.33;;
52136;SDS011;69622;49.570;10.986;2023-04-25T12:06:36;2.40;;;1.25;;
52136;SDS011;69622;49.570;10.986;2023-04-25T12:09:41;2.45;;;1.13;;
52136;SDS011;69622;49.570;10.986;2023-04-25T12:12:43;2.63;;;1.20;;
52136;SDS011;69622;49.570;10.986;2023-04-25T12:15:46;2.42;;;1.05;;
52136;SDS011;69622;49.570;10.986;2023-04-25T12:18:51;2.33;;;1.10;;
52136;SDS011;69622;49.570;10.986;2023-04-25T12:24:59;3.25;;;1.38;;
52136;SDS011;69622;49.570;10.986;2023-04-25T12:28:17;1.70;;;0.98;;
52136;SDS011;69622;49.570;10.986;2023-04-25T12:31:26;2.03;;;1.33;;
52136;SDS011;69622;49.570;10.986;2023-04-25T12:34:28;4.93;;;1.27;;
52136;SDS011;69622;49.570;10.986;2023-04-25T12:37:29;2.85;;;1.67;;
52136;SDS011;69622;49.570;10.986;2023-04-25T12:40:32;2.13;;;1.60;;
52136;SDS011;69622;49.570;10.986;2023-04-25T12:43:33;2.38;;;1.85;;
52136;SDS011;69622;49.570;10.986;2023-04-25T12:46:35;3.63;;;1.90;;
52136;SDS011;69622;49.570;10.986;2023-04-25T12:49:37;2.92;;;1.50;;
52136;SDS011;69622;49.570;10.986;2023-04-25T12:52:39;2.35;;;1.65;;
52136;SDS011;69622;49.570;10.986;2023-04-25T12:55:40;2.13;;;1.60;;
52136;SDS011;69622;49.570;10.986;2023-04-25T12:58:41;2.08;;;1.50;;
52136;SDS011;69622;49.570;10.986;2023-04-25T13:01:45;6.57;;;1.52;;
52136;SDS011;69622;49.570;10.986;2023-04-25T13:04:46;5.03;;;1.95;;
52136;SDS011;69622;49.570;10.986;2023-04-25T13:07:48;1.98;;;1.50;;
52136;SDS011;69622;49.570;10.986;2023-04-25T13:10:50;2.72;;;1.50;;
52136;SDS011;69622;49.570;10.986;2023-04-25T13:13:51;3.10;;;1.70;;
52136;SDS011;69622;49.570;10.986;2023-04-25T13:16:53;5.10;;;1.73;;
52136;SDS011;69622;49.570;10.986;2023-04-25T13:19:55;3.65;;;1.90;;
52136;SDS011;69622;49.570;10.986;2023-04-25T13:22:57;3.72;;;1.85;;
52136;SDS011;69622;49.570;10.986;2023-04-25T13:26:00;3.45;;;1.58;;
52136;SDS011;69622;49.570;10.986;2023-04-25T13:29:02;3.38;;;1.83;;
52136;SDS011;69622;49.570;10.986;2023-04-25T13:32:04;2.88;;;1.80;;
52136;SDS011;69622;49.570;10.986;2023-04-25T13:35:10;3.22;;;1.77;;
52136;SDS011;69622;49.570;10.986;2023-04-25T13:38:13;4.93;;;1.58;;
52136;SDS011;69622;49.570;10.986;2023-04-25T13:41:15;2.45;;;1.67;;
52136;SDS011;69622;49.570;10.986;2023-04-25T13:44:19;7.53;;;2.05;;
52136;SDS011;69622;49.570;10.986;2023-04-25T13:47:21;2.38;;;1.65;;
52136;SDS011;69622;49.570;10.986;2023-04-25T13:50:24;3.42;;;1.88;;
52136;SDS011;69622;49.570;10.986;2023-04-25T13:53:26;3.65;;;2.22;;
52136;SDS011;69622;49.570;10.986;2023-04-25T13:56:27;2.78;;;1.63;;
52136;SDS011;69622;49.570;10.986;2023-04-25T13:59:29;6.68;;;2.00;;
52136;SDS011;69622;49.570;10.986;2023-04-25T14:02:30;3.65;;;2.40;;
52136;SDS011;69622;49.570;10.986;2023-04-25T14:05:31;3.95;;;2.45;;
52136;SDS011;69622;49.570;10.986;2023-04-25T14:08:33;4.13;;;2.00;;
52136;SDS011;69622;49.570;10.986;2023-04-25T14:11:34;3.50;;;2.38;;
52136;SDS011;69622;49.570;10.986;2023-04-25T14:14:36;3.55;;;2.45;;
52136;SDS011;69622;49.570;10.986;2023-04-25T14:17:37;5.47;;;2.17;;
52136;SDS011;69622;49.570;10.986;2023-04-25T14:20:39;5.03;;;2.08;;
52136;SDS011;69622;49.570;10.986;2023-04-25T14:23:40;5.45;;;2.58;;
52136;SDS011;69622;49.570;10.986;2023-04-25T14:26:41;4.35;;;2.20;;
52136;SDS011;69622;49.570;10.986;2023-04-25T14:29:46;5.55;;;2.50;;
52136;SDS011;69622;49.570;10.986;2023-04-25T14:32:49;4.45;;;2.42;;
52136;SDS011;69622;49.570;10.986;2023-04-25T14:35:51;6.30;;;2.28;;
52136;SDS011;69622;49.570;10.986;2023-04-25T14:38:52;4.80;;;1.73;;
52136;SDS011;69622;49.570;10.986;2023-04-25T14:41:54;4.38;;;2.00;;
52136;SDS011;69622;49.570;10.986;2023-04-25T14:44:55;4.05;;;2.58;;
52136;SDS011;69622;49.570;10.986;2023-04-25T14:47:56;3.40;;;2.45;;
52136;SDS011;69622;49.570;10.986;2023-04-25T14:50:58;7.65;;;2.95;;
52136;SDS011;69622;49.570;10.986;2023-04-25T14:54:01;3.70;;;2.38;;
52136;SDS011;69622;49.570;10.986;2023-04-25T14:57:02;5.38;;;3.00;;
52136;SDS011;69622;49.570;10.986;2023-04-25T15:00:04;4.28;;;2.35;;
52136;SDS011;69622;49.570;10.986;2023-04-25T15:03:10;4.78;;;2.35;;
52136;SDS011;69622;49.570;10.986;2023-04-25T15:06:14;6.78;;;2.45;;
52136;SDS011;69622;49.570;10.986;2023-04-25T15:09:15;3.83;;;2.13;;
52136;SDS011;69622;49.570;10.986;2023-04-25T15:12:19;5.47;;;2.50;;
52136;SDS011;69622;49.570;10.986;2023-04-25T15:15:21;5.18;;;2.40;;
52136;SDS011;69622;49.570;10.986;2023-04-25T15:18:27;5.05;;;2.47;;
52136;SDS011;69622;49.570;10.986;2023-04-25T15:21:29;3.15;;;2.10;;
52136;SDS011;69622;49.570;10.986;2023-04-25T15:24:31;4.22;;;2.47;;
52136;SDS011;69622;49.570;10.986;2023-04-25T15:27:33;3.90;;;2.38;;
52136;SDS011;69622;49.570;10.986;2023-04-25T15:30:38;5.35;;;2.75;;
52136;SDS011;69622;49.570;10.986;2023-04-25T15:33:40;5.30;;;2.60;;
52136;SDS011;69622;49.570;10.986;2023-04-25T15:36:41;4.00;;;2.45;;
52136;SDS011;69622;49.570;10.986;2023-04-25T15:39:43;4.82;;;2.53;;
52136;SDS011;69622;49.570;10.986;2023-04-25T15:42:45;5.80;;;2.58;;
52136;SDS011;69622;49.570;10.986;2023-04-25T15:45:51;7.20;;;2.30;;
52136;SDS011;69622;49.570;10.986;2023-04-25T15:48:53;5.90;;;2.72;;
52136;SDS011;69622;49.570;10.986;2023-04-25T15:51:54;8.05;;;2.60;;
52136;SDS011;69622;49.570;10.986;2023-04-25T15:54:56;4.75;;;2.33;;
52136;SDS011;69622;49.570;10.986;2023-04-25T15:57:57;3.45;;;2.30;;
52136;SDS011;69622;49.570;10.986;2023-04-25T16:00:59;3.88;;;2.30;;
52136;SDS011;69622;49.570;10.986;2023-04-25T16:04:00;6.53;;;2.30;;
52136;SDS011;69622;49.570;10.986;2023-04-25T16:07:03;3.78;;;2.55;;
52136;SDS011;69622;49.570;10.986;2023-04-25T16:10:05;4.85;;;2.33;;
52136;SDS011;69622;49.570;10.986;2023-04-25T16:13:07;2.88;;;2.30;;
52136;SDS011;69622;49.570;10.986;2023-04-25T16:16:09;5.45;;;2.25;;
52136;SDS011;69622;49.570;10.986;2023-04-25T16:19:10;4.35;;;1.83;;
52136;SDS011;69622;49.570;10.986;2023-04-25T16:22:12;4.30;;;2.00;;
52136;SDS011;69622;49.570;10.986;2023-04-25T16:25:16;3.42;;;1.92;;
52136;SDS011;69622;49.570;10.986;2023-04-25T16:28:18;4.88;;;2.40;;
52136;SDS011;69622;49.570;10.986;2023-04-25T16:31:19;5.30;;;2.28;;
52136;SDS011;69622;49.570;10.986;2023-04-25T16:34:21;4.07;;;2.00;;
52136;SDS011;69622;49.570;10.986;2023-04-25T16:37:27;8.23;;;1.98;;
52136;SDS011;69622;49.570;10.986;2023-04-25T16:40:29;3.75;;;2.20;;
52136;SDS011;69622;49.570;10.986;2023-04-25T16:43:30;3.33;;;1.98;;
52136;SDS011;69622;49.570;10.986;2023-04-25T16:46:32;3.33;;;2.22;;
52136;SDS011;69622;49.570;10.986;2023-04-25T16:49:33;5.05;;;1.83;;
52136;SDS011;69622;49.570;10.986;2023-04-25T16:52:35;4.97;;;2.17;;
52136;SDS011;69622;49.570;10.986;2023-04-25T16:55:36;7.03;;;3.00;;
52136;SDS011;69622;49.570;10.986;2023-04-25T16:58:38;2.92;;;1.98;;
52136;SDS011;69622;49.570;10.986;2023-04-25T17:01:39;3.40;;;2.17;;
52136;SDS011;69622;49.570;10.986;2023-04-25T17:04:41;4.13;;;2.40;;
52136;SDS011;69622;49.570;10.986;2023-04-25T17:07:42;3.88;;;1.80;;
52136;SDS011;69622;49.570;10.986;2023-04-25T17:10:44;5.13;;;2.00;;
52136;SDS011;69622;49.570;10.986;2023-04-25T17:13:46;4.93;;;2.25;;
52136;SDS011;69622;49.570;10.986;2023-04-25T17:16:48;3.78;;;1.85;;
52136;SDS011;69622;49.570;10.986;2023-04-25T17:19:50;3.03;;;1.58;;
52136;SDS011;69622;49.570;10.986;2023-04-25T17:22:52;4.05;;;2.10;;
52136;SDS011;69622;49.570;10.986;2023-04-25T17:25:53;2.47;;;1.58;;
52136;SDS011;69622;49.570;10.986;2023-04-25T17:28:55;4.57;;;1.77;;
52136;SDS011;69622;49.570;10.986;2023-04-25T17:31:56;5.72;;;2.15;;
52136;SDS011;69622;49.570;10.986;2023-04-25T17:34:58;6.30;;;2.38;;
52136;SDS011;69622;49.570;10.986;2023-04-25T17:38:00;3.60;;;2.10;;
52136;SDS011;69622;49.570;10.986;2023-04-25T17:41:01;6.25;;;2.78;;
52136;SDS011;69622;49.570;10.986;2023-04-25T17:44:03;3.75;;;2.00;;
52136;SDS011;69622;49.570;10.986;2023-04-25T17:47:04;4.15;;;2.22;;
52136;SDS011;69622;49.570;10.986;2023-04-25T17:50:09;8.18;;;2.33;;
52136;SDS011;69622;49.570;10.986;2023-04-25T17:53:10;9.65;;;3.63;;
52136;SDS011;69622;49.570;10.986;2023-04-25T17:56:12;6.47;;;2.65;;
52136;SDS011;69622;49.570;10.986;2023-04-25T17:59:26;7.55;;;2.60;;
52136;SDS011;69622;49.570;10.986;2023-04-25T18:02:28;4.30;;;2.22;;
52136;SDS011;69622;49.570;10.986;2023-04-25T18:05:30;4.40;;;2.40;;
52136;SDS011;69622;49.570;10.986;2023-04-25T18:08:32;5.32;;;2.22;;
52136;SDS011;69622;49.570;10.986;2023-04-25T18:11:34;6.43;;;2.70;;
52136;SDS011;69622;49.570;10.986;2023-04-25T18:14:35;6.03;;;2.85;;
52136;SDS011;69622;49.570;10.986;2023-04-25T18:17:37;6.85;;;2.50;;
52136;SDS011;69622;49.570;10.986;2023-04-25T18:20:41;7.78;;;2.63;;